createdAt,value
2023-02-19T00:00:12.085Z,100484.56
2023-02-19T00:03:13.916Z,100487.53
2023-02-19T00:06:16.010Z,100476.38
2023-02-19T00:09:18.735Z,100481.34
2023-02-19T00:12:21.215Z,100488.69
2023-02-19T00:15:23.165Z,100490.81
2023-02-19T00:18:25.027Z,100480.28
2023-02-19T00:21:27.349Z,100480.22
2023-02-19T00:24:29.225Z,100474.41
2023-02-19T00:27:31.055Z,100480.87
2023-02-19T00:30:32.969Z,100473.44
2023-02-19T00:33:34.905Z,100467.00
2023-02-19T00:36:37.612Z,100474.47
2023-02-19T00:39:39.782Z,100469.59
2023-02-19T00:42:41.716Z,100463.69
2023-02-19T00:45:43.959Z,100460.72
2023-02-19T00:48:45.973Z,100469.72
2023-02-19T00:51:48.113Z,100458.50
2023-02-19T00:54:49.967Z,100465.53
2023-02-19T00:57:51.947Z,100476.84
2023-02-19T01:00:53.802Z,100472.22
2023-02-19T01:03:55.680Z,100479.00
2023-02-19T01:06:57.743Z,100485.69
2023-02-19T01:09:59.696Z,100475.22
2023-02-19T01:13:01.670Z,100473.16
2023-02-19T01:16:06.626Z,100467.97
2023-02-19T01:19:08.546Z,100459.50
2023-02-19T01:22:10.711Z,100472.09
2023-02-19T01:25:12.746Z,100459.41
2023-02-19T01:28:14.824Z,100463.16
2023-02-19T01:31:18.153Z,100458.81
2023-02-19T01:34:20.087Z,100466.03
2023-02-19T01:37:21.898Z,100464.66
2023-02-19T01:40:23.883Z,100460.53
2023-02-19T01:43:26.094Z,100460.13
2023-02-19T01:46:29.167Z,100478.09
2023-02-19T01:49:32.374Z,100475.88
2023-02-19T01:52:34.719Z,100471.78
2023-02-19T01:55:36.643Z,100457.47
2023-02-19T01:58:38.551Z,100469.66
2023-02-19T02:01:40.496Z,100469.94
2023-02-19T02:04:42.461Z,100467.94
2023-02-19T02:08:02.866Z,100445.62
2023-02-19T02:11:04.912Z,100432.44
2023-02-19T02:14:06.897Z,100442.19
2023-02-19T02:17:29.125Z,100442.03
2023-02-19T02:20:37.240Z,100460.44
2023-02-19T02:23:39.023Z,100453.31
2023-02-19T02:26:52.527Z,100430.13
2023-02-19T02:30:13.460Z,100427.19
2023-02-19T02:33:26.967Z,100438.88
2023-02-19T02:36:33.836Z,100424.75
2023-02-19T02:39:35.984Z,100421.66
2023-02-19T02:42:38.820Z,100427.56
2023-02-19T02:45:40.842Z,100427.44
2023-02-19T02:48:46.746Z,100441.00
2023-02-19T02:51:50.451Z,100449.19
2023-02-19T02:55:04.490Z,100452.91
2023-02-19T02:58:06.373Z,100444.81
2023-02-19T03:01:30.998Z,100453.56
2023-02-19T03:04:58.873Z,100458.84
2023-02-19T03:08:00.689Z,100462.38
2023-02-19T03:11:24.017Z,100453.47
2023-02-19T03:14:47.208Z,100456.03
2023-02-19T03:18:08.787Z,100463.25
2023-02-19T03:21:10.920Z,100456.16
2023-02-19T03:24:31.654Z,100447.06
2023-02-19T03:27:33.512Z,100454.06
2023-02-19T03:30:55.711Z,100465.81
2023-02-19T03:33:58.551Z,100466.19
2023-02-19T03:37:32.907Z,100472.22
2023-02-19T03:40:35.975Z,100461.81
2023-02-19T03:43:42.284Z,100465.34
2023-02-19T03:46:44.180Z,100471.69
2023-02-19T03:49:49.090Z,100475.16
2023-02-19T03:53:04.205Z,100463.31
2023-02-19T03:56:24.885Z,100477.69
2023-02-19T03:59:34.632Z,100469.44
2023-02-19T04:02:41.831Z,100467.47
2023-02-19T04:05:55.483Z,100460.81
2023-02-19T04:08:59.002Z,100455.13
2023-02-19T04:12:00.819Z,100450.53
2023-02-19T04:15:04.963Z,100456.66
2023-02-19T04:18:07.536Z,100463.16
2023-02-19T04:21:09.947Z,100464.66
2023-02-19T04:24:16.990Z,100462.75
2023-02-19T04:27:19.102Z,100470.38
2023-02-19T04:30:21.265Z,100465.75
2023-02-19T04:33:23.217Z,100470.22
2023-02-19T04:36:25.004Z,100467.09
2023-02-19T04:39:26.916Z,100469.66
2023-02-19T04:42:28.729Z,100466.09
2023-02-19T04:45:30.773Z,100472.22
2023-02-19T04:48:32.855Z,100464.78
2023-02-19T04:51:34.755Z,100443.03
2023-02-19T04:54:36.695Z,100457.16
2023-02-19T04:57:38.568Z,100469.12
2023-02-19T05:00:40.434Z,100457.63
2023-02-19T05:03:42.376Z,100452.00
2023-02-19T05:06:44.282Z,100448.06
2023-02-19T05:09:46.241Z,100451.03
2023-02-19T05:12:48.200Z,100448.22
2023-02-19T05:15:56.437Z,100447.47
2023-02-19T05:18:58.484Z,100458.03
2023-02-19T05:22:00.609Z,100446.53
2023-02-19T05:25:02.499Z,100453.63
2023-02-19T05:28:19.538Z,100456.72
2023-02-19T05:31:21.984Z,100469.44
2023-02-19T05:34:23.904Z,100450.72
2023-02-19T05:37:25.887Z,100462.28
2023-02-19T05:40:27.788Z,100454.44
2023-02-19T05:43:29.725Z,100450.69
2023-02-19T05:46:32.078Z,100458.78
2023-02-19T05:49:34.073Z,100442.91
2023-02-19T05:52:36.122Z,100450.25
2023-02-19T05:55:38.114Z,100451.00
2023-02-19T05:58:40.065Z,100456.31
2023-02-19T06:01:42.150Z,100466.19
2023-02-19T06:04:44.121Z,100475.88
2023-02-19T06:07:45.983Z,100465.97
2023-02-19T06:10:47.990Z,100476.03
2023-02-19T06:13:50.683Z,100471.34
2023-02-19T06:16:52.498Z,100471.63
2023-02-19T06:19:54.400Z,100472.31
2023-02-19T06:22:56.807Z,100462.75
2023-02-19T06:26:08.637Z,100453.75
2023-02-19T06:29:10.435Z,100440.97
2023-02-19T06:32:12.440Z,100442.84
2023-02-19T06:35:14.538Z,100449.84
2023-02-19T06:38:16.682Z,100452.44
2023-02-19T06:41:18.889Z,100449.38
2023-02-19T06:44:21.020Z,100442.09
2023-02-19T06:47:25.163Z,100436.59
2023-02-19T06:50:27.293Z,100439.94
2023-02-19T06:53:29.229Z,100442.41
2023-02-19T06:56:32.120Z,100441.59
2023-02-19T06:59:33.979Z,100457.41
2023-02-19T07:02:35.892Z,100443.84
2023-02-19T07:05:37.706Z,100439.12
2023-02-19T07:08:39.770Z,100451.25
2023-02-19T07:11:42.636Z,100453.53
2023-02-19T07:14:44.482Z,100450.84
2023-02-19T07:17:46.408Z,100462.56
2023-02-19T07:20:48.392Z,100456.19
2023-02-19T07:23:50.378Z,100467.72
2023-02-19T07:26:52.211Z,100465.22
2023-02-19T07:29:54.127Z,100444.31
2023-02-19T07:32:55.976Z,100453.41
2023-02-19T07:35:57.922Z,100433.28
2023-02-19T07:39:00.018Z,100440.41
2023-02-19T07:42:02.003Z,100437.53
2023-02-19T07:45:04.028Z,100437.00
2023-02-19T07:48:05.852Z,100439.00
2023-02-19T07:51:09.643Z,100441.16
2023-02-19T07:54:11.667Z,100439.09
2023-02-19T07:57:14.699Z,100452.59
2023-02-19T08:00:16.872Z,100449.63
2023-02-19T08:03:18.772Z,100461.16
2023-02-19T08:06:20.635Z,100462.06
2023-02-19T08:09:22.533Z,100461.72
2023-02-19T08:12:42.948Z,100470.31
2023-02-19T08:15:45.336Z,100472.13
2023-02-19T08:18:48.049Z,100464.75
2023-02-19T08:21:50.680Z,100480.31
2023-02-19T08:24:52.695Z,100481.75
2023-02-19T08:27:54.557Z,100473.66
2023-02-19T08:31:04.359Z,100489.94
2023-02-19T08:34:06.364Z,100488.22
2023-02-19T08:37:08.190Z,100494.00
2023-02-19T08:40:10.397Z,100492.22
2023-02-19T08:43:13.440Z,100482.78
2023-02-19T08:46:15.417Z,100467.94
2023-02-19T08:49:17.322Z,100473.28
2023-02-19T08:52:19.190Z,100457.34
2023-02-19T08:55:21.071Z,100464.94
2023-02-19T08:58:23.282Z,100460.37
2023-02-19T09:01:25.346Z,100462.38
2023-02-19T09:04:27.321Z,100467.44
2023-02-19T09:07:29.176Z,100464.59
2023-02-19T09:10:31.167Z,100471.47
2023-02-19T09:13:33.005Z,100474.16
2023-02-19T09:16:35.506Z,100475.66
2023-02-19T09:19:37.472Z,100455.59
2023-02-19T09:22:39.338Z,100452.91
2023-02-19T09:25:41.296Z,100449.66
2023-02-19T09:28:43.381Z,100446.91
2023-02-19T09:31:45.425Z,100451.19
2023-02-19T09:34:47.468Z,100444.25
2023-02-19T09:37:49.499Z,100450.72
2023-02-19T09:40:51.369Z,100439.47
2023-02-19T09:43:53.355Z,100430.31
2023-02-19T09:46:55.179Z,100427.03
2023-02-19T09:49:59.425Z,100428.69
2023-02-19T09:53:03.184Z,100429.87
2023-02-19T09:56:05.197Z,100427.06
2023-02-19T09:59:07.166Z,100425.25
2023-02-19T10:02:18.981Z,100413.50
2023-02-19T10:05:20.890Z,100407.69
2023-02-19T10:08:23.084Z,100406.03
2023-02-19T10:11:25.075Z,100405.06
2023-02-19T10:14:27.004Z,100397.41
2023-02-19T10:17:34.510Z,100392.03
2023-02-19T10:20:36.359Z,100384.66
2023-02-19T10:23:39.197Z,100377.62
2023-02-19T10:26:41.101Z,100384.75
2023-02-19T10:29:43.336Z,100360.38
2023-02-19T10:33:08.777Z,100349.25
2023-02-19T10:36:16.410Z,100348.56
2023-02-19T10:39:21.133Z,100352.78
2023-02-19T10:42:23.409Z,100324.44
2023-02-19T10:45:44.492Z,100320.97
2023-02-19T10:48:59.735Z,100325.88
2023-02-19T10:52:20.611Z,100314.31
2023-02-19T10:55:30.557Z,100308.19
2023-02-19T10:58:34.519Z,100300.31
2023-02-19T11:01:36.530Z,100285.44
2023-02-19T11:04:38.531Z,100280.03
2023-02-19T11:07:44.483Z,100277.19
2023-02-19T11:10:46.399Z,100262.66
2023-02-19T11:13:48.396Z,100246.63
2023-02-19T11:16:55.112Z,100257.91
2023-02-19T11:19:57.430Z,100264.06
2023-02-19T11:23:25.896Z,100242.62
2023-02-19T11:26:28.775Z,100242.94
2023-02-19T11:29:34.998Z,100230.16
2023-02-19T11:32:36.975Z,100227.88
2023-02-19T11:35:38.871Z,100209.13
2023-02-19T11:38:40.868Z,100209.47
2023-02-19T11:41:50.676Z,100219.03
2023-02-19T11:45:11.644Z,100217.97
2023-02-19T11:48:19.682Z,100212.63
2023-02-19T11:51:44.996Z,100201.59
2023-02-19T11:54:49.460Z,100185.38
2023-02-19T11:57:51.285Z,100199.59
2023-02-19T12:00:55.629Z,100193.06
2023-02-19T12:04:11.111Z,100189.37
2023-02-19T12:07:13.398Z,100178.03
2023-02-19T12:10:26.767Z,100185.09
2023-02-19T12:13:31.786Z,100165.38
2023-02-19T12:16:39.788Z,100183.66
2023-02-19T12:19:45.392Z,100186.91
2023-02-19T12:22:53.955Z,100169.66
2023-02-19T12:26:12.579Z,100185.66
2023-02-19T12:29:31.065Z,100181.97
2023-02-19T12:32:48.171Z,100172.16
2023-02-19T12:36:05.520Z,100174.19
2023-02-19T12:39:14.774Z,100177.44
2023-02-19T12:42:35.385Z,100189.34
2023-02-19T12:45:46.400Z,100193.34
2023-02-19T12:48:52.803Z,100191.28
2023-02-19T12:51:58.868Z,100199.84
2023-02-19T12:55:02.549Z,100237.41
2023-02-19T12:58:05.064Z,100242.88
2023-02-19T13:01:07.543Z,100239.66
2023-02-19T13:04:15.578Z,100251.03
2023-02-19T13:07:19.302Z,100240.87
2023-02-19T13:10:27.290Z,100234.44
2023-02-19T13:13:31.007Z,100229.78
2023-02-19T13:16:34.720Z,100217.03
2023-02-19T13:19:37.179Z,100209.28
2023-02-19T13:22:58.832Z,100211.59
2023-02-19T13:26:03.788Z,100212.00
2023-02-19T13:29:18.035Z,100219.72
2023-02-19T13:32:23.525Z,100195.94
2023-02-19T13:35:37.717Z,100206.25
2023-02-19T13:38:44.062Z,100200.31
2023-02-19T13:41:50.471Z,100194.53
2023-02-19T13:44:57.739Z,100225.91
2023-02-19T13:48:02.368Z,100233.69
2023-02-19T13:51:16.254Z,100271.50
2023-02-19T13:54:22.455Z,100254.28
2023-02-19T13:57:24.382Z,100261.91
2023-02-19T14:00:44.958Z,100276.72
2023-02-19T14:03:53.836Z,100284.16
2023-02-19T14:07:04.818Z,100272.66
2023-02-19T14:10:08.967Z,100277.37
2023-02-19T14:13:10.799Z,100298.44
2023-02-19T14:16:29.030Z,100309.81
2023-02-19T14:19:46.916Z,100309.16
2023-02-19T14:22:52.558Z,100326.44
2023-02-19T14:25:58.639Z,100331.53
2023-02-19T14:29:00.707Z,100337.94
2023-02-19T14:32:02.564Z,100343.06
2023-02-19T14:35:04.603Z,100356.34
2023-02-19T14:38:06.556Z,100358.44
2023-02-19T14:41:08.595Z,100359.72
2023-02-19T14:44:15.224Z,100372.31
2023-02-19T14:47:17.751Z,100373.88
2023-02-19T14:50:27.828Z,100378.75
2023-02-19T14:53:29.801Z,100383.44
2023-02-19T14:56:33.564Z,100371.38
2023-02-19T14:59:35.518Z,100359.88
2023-02-19T15:02:41.845Z,100370.13
2023-02-19T15:05:45.340Z,100371.28
2023-02-19T15:08:48.395Z,100375.34
2023-02-19T15:11:50.481Z,100378.56
2023-02-19T15:14:54.217Z,100388.47
2023-02-19T15:17:56.859Z,100392.84
2023-02-19T15:21:02.539Z,100402.81
2023-02-19T15:24:05.253Z,100387.22
2023-02-19T15:27:07.090Z,100400.34
2023-02-19T15:30:23.033Z,100383.72
2023-02-19T15:33:27.213Z,100379.44
2023-02-19T15:36:30.374Z,100380.06
2023-02-19T15:39:36.377Z,100379.56
2023-02-19T15:42:38.256Z,100375.25
2023-02-19T15:45:42.946Z,100370.91
2023-02-19T15:48:46.795Z,100371.34
2023-02-19T15:51:53.517Z,100363.91
2023-02-19T15:54:58.352Z,100398.69
2023-02-19T15:58:35.791Z,100393.50
2023-02-19T16:01:37.835Z,100398.38
2023-02-19T16:04:43.408Z,100391.44
2023-02-19T16:07:45.437Z,100403.72
2023-02-19T16:10:57.667Z,100400.94
2023-02-19T16:14:18.396Z,100416.69
2023-02-19T16:17:23.094Z,100408.78
2023-02-19T16:20:28.795Z,100421.72
2023-02-19T16:23:31.329Z,100410.28
2023-02-19T16:26:40.276Z,100425.28
2023-02-19T16:29:42.315Z,100418.25
2023-02-19T16:32:45.512Z,100429.19
2023-02-19T16:35:49.859Z,100443.19
2023-02-19T16:39:07.136Z,100448.22
2023-02-19T16:42:11.176Z,100460.47
2023-02-19T16:45:13.219Z,100471.47
2023-02-19T16:48:15.096Z,100479.25
2023-02-19T16:51:18.154Z,100470.22
2023-02-19T16:54:20.173Z,100467.94
2023-02-19T16:57:22.169Z,100446.06
2023-02-19T17:00:25.235Z,100467.94
2023-02-19T17:03:27.994Z,100461.13
2023-02-19T17:06:30.120Z,100467.25
2023-02-19T17:09:32.105Z,100483.03
2023-02-19T17:12:33.966Z,100479.09
2023-02-19T17:15:35.784Z,100477.13
2023-02-19T17:18:37.644Z,100483.41
2023-02-19T17:21:39.957Z,100482.62
2023-02-19T17:24:41.867Z,100493.69
2023-02-19T17:27:43.774Z,100470.50
2023-02-19T17:30:45.820Z,100489.25
2023-02-19T17:33:47.884Z,100486.97
2023-02-19T17:36:49.745Z,100510.09
2023-02-19T17:39:51.683Z,100515.41
2023-02-19T17:42:53.588Z,100505.59
2023-02-19T17:45:55.564Z,100508.69
2023-02-19T17:48:57.711Z,100545.22
2023-02-19T17:51:59.669Z,100529.19
2023-02-19T17:55:01.706Z,100535.87
2023-02-19T17:58:03.613Z,100546.69
2023-02-19T18:01:05.646Z,100551.56
2023-02-19T18:04:07.723Z,100543.66
2023-02-19T18:07:09.646Z,100547.09
2023-02-19T18:10:12.080Z,100552.63
2023-02-19T18:13:14.059Z,100561.22
2023-02-19T18:16:16.806Z,100560.59
2023-02-19T18:19:18.835Z,100579.72
2023-02-19T18:22:20.716Z,100581.38
2023-02-19T18:25:22.792Z,100595.81
2023-02-19T18:28:24.879Z,100593.16
2023-02-19T18:31:26.862Z,100613.25
2023-02-19T18:34:28.724Z,100613.09
2023-02-19T18:37:32.503Z,100612.16
2023-02-19T18:40:34.424Z,100631.00
2023-02-19T18:43:36.416Z,100646.13
2023-02-19T18:46:38.245Z,100652.53
2023-02-19T18:49:40.391Z,100656.50
2023-02-19T18:52:42.341Z,100661.50
2023-02-19T18:55:44.231Z,100664.47
2023-02-19T18:58:46.220Z,100684.84
2023-02-19T19:01:48.172Z,100690.50
2023-02-19T19:04:51.239Z,100698.75
2023-02-19T19:07:54.131Z,100694.53
2023-02-19T19:10:56.038Z,100698.47
2023-02-19T19:13:57.948Z,100699.00
2023-02-19T19:17:00.389Z,100702.97
2023-02-19T19:20:02.351Z,100700.41
2023-02-19T19:23:06.079Z,100685.81
2023-02-19T19:26:08.179Z,100689.31
2023-02-19T19:29:10.145Z,100680.31
2023-02-19T19:32:12.364Z,100681.28
2023-02-19T19:35:15.737Z,100669.19
2023-02-19T19:38:17.694Z,100678.72
2023-02-19T19:41:19.700Z,100674.13
2023-02-19T19:44:21.606Z,100678.28
2023-02-19T19:47:23.445Z,100689.53
2023-02-19T19:50:25.341Z,100707.91
2023-02-19T19:53:27.343Z,100703.09
2023-02-19T19:56:29.224Z,100713.00
2023-02-19T19:59:31.258Z,100716.97
2023-02-19T20:02:33.205Z,100726.06
2023-02-19T20:05:35.418Z,100724.50
2023-02-19T20:08:37.275Z,100737.78
2023-02-19T20:11:46.471Z,100755.06
2023-02-19T20:14:48.499Z,100757.03
2023-02-19T20:17:50.393Z,100772.16
2023-02-19T20:20:52.203Z,100784.88
2023-02-19T20:23:54.135Z,100784.12
2023-02-19T20:26:59.739Z,100798.97
2023-02-19T20:30:01.605Z,100808.34
2023-02-19T20:33:03.648Z,100828.88
2023-02-19T20:36:05.797Z,100834.16
2023-02-19T20:39:07.754Z,100851.09
2023-02-19T20:42:09.946Z,100854.56
2023-02-19T20:45:11.841Z,100851.84
2023-02-19T20:48:17.027Z,100848.75
2023-02-19T20:51:18.879Z,100867.56
2023-02-19T20:54:21.710Z,100877.37
2023-02-19T20:57:23.971Z,100882.97
2023-02-19T21:00:25.935Z,100886.22
2023-02-19T21:03:27.881Z,100889.78
2023-02-19T21:06:29.896Z,100897.47
2023-02-19T21:09:32.182Z,100897.19
2023-02-19T21:12:34.150Z,100888.63
2023-02-19T21:15:36.098Z,100908.84
2023-02-19T21:18:38.038Z,100907.44
2023-02-19T21:21:40.503Z,100907.94
2023-02-19T21:24:42.370Z,100900.94
2023-02-19T21:27:44.260Z,100905.84
2023-02-19T21:30:46.211Z,100910.81
2023-02-19T21:33:48.131Z,100905.06
2023-02-19T21:36:49.956Z,100912.75
2023-02-19T21:39:51.953Z,100919.56
2023-02-19T21:42:53.902Z,100915.34
2023-02-19T21:45:55.934Z,100902.50
2023-02-19T21:48:57.823Z,100916.88
2023-02-19T21:51:59.612Z,100928.56
2023-02-19T21:55:01.457Z,100918.97
2023-02-19T21:58:03.448Z,100918.94
2023-02-19T22:01:05.272Z,100922.22
2023-02-19T22:04:07.299Z,100911.53
2023-02-19T22:07:09.330Z,100908.13
2023-02-19T22:10:11.208Z,100911.22
2023-02-19T22:13:13.193Z,100922.84
2023-02-19T22:16:15.279Z,100920.97
2023-02-19T22:19:17.285Z,100923.97
2023-02-19T22:22:19.172Z,100927.47
2023-02-19T22:25:21.061Z,100938.31
2023-02-19T22:28:22.903Z,100936.72
2023-02-19T22:31:25.812Z,100934.75
2023-02-19T22:34:27.689Z,100946.75
2023-02-19T22:37:30.032Z,100952.69
2023-02-19T22:40:31.930Z,100950.47
2023-02-19T22:43:33.747Z,100963.94
2023-02-19T22:46:35.620Z,100973.69
2023-02-19T22:49:38.100Z,100978.34
2023-02-19T22:52:39.939Z,100977.44
2023-02-19T22:55:42.090Z,100985.53
2023-02-19T22:58:44.162Z,100985.06
2023-02-19T23:01:46.148Z,101002.75
2023-02-19T23:04:48.079Z,101004.06
2023-02-19T23:07:49.985Z,101019.34
2023-02-19T23:10:51.932Z,101018.09
2023-02-19T23:13:54.089Z,101022.12
2023-02-19T23:16:56.012Z,101038.09
2023-02-19T23:19:58.005Z,101041.94
2023-02-19T23:22:59.930Z,101050.00
2023-02-19T23:26:02.403Z,101053.00
2023-02-19T23:29:04.379Z,101064.91
2023-02-19T23:32:06.344Z,101069.75
2023-02-19T23:35:08.301Z,101068.13
2023-02-19T23:38:10.199Z,101065.19
2023-02-19T23:41:12.548Z,101084.66
2023-02-19T23:44:14.696Z,101072.34
2023-02-19T23:47:16.700Z,101085.69
2023-02-19T23:50:18.698Z,101082.25
2023-02-19T23:53:20.599Z,101100.94
2023-02-19T23:56:23.762Z,101103.88
2023-02-19T23:59:25.627Z,101100.16
